CheckWX is a tool to help pilots better visualize weather data.  It is not intended as a substitute for an official pre-flight weather briefing.

15:03:18 UTC

LRTM TAF
Transilvania Târgu Mureş International Airport
Târgu Mureş, Romania
TAF LRTM 231400Z 2315/2324 32008KT CAVOK

Mar-23@
15:00 UTC

Mar-23 @ 15:00 UTC

Mar-24@
00:00 UTC

Mar-24 @ 00:00 UTC

TAF LRTM 231400Z 2315/2324 32008KT CAVOK
Wind
  • 320° at 8 KTS
Conditions
No significant weather
Cloud Levels
  • No significant clouds